Back to Top

Language: 

My Weather Underground Personal Weather Station Historical Data with Graphs...

Delerius Weather Station Historical Data
Daily Summary for February 26, 2017 Units:  Both    English   Metric
« Previous Day
Next Day »
Daily Weekly Monthly Yearly Custom
  High: Low: Average:
Temperature: 52.2 °F /  11.2 °C 43.2 °F /  6.2 °C 48.5 °F /  9.2 °C
Dew Point: 47.8 °F /  8.8 °C 39.6 °F /  4.2 °C 44 °F /  6.7 °C
Humidity: 95 % 77 % 85 %
Wind Speed: 24.0 mph /  38.6 km/h - 11.5 mph /  18.5 km/h
Wind Gust: 30.0 mph /  48.3 km/h - -
Wind:- - SW
Pressure: 29.62 in /  1002.9 hPa 29.33 in /  993.1 hPa -
Precipitation: 0.05 in /  1.27 mm    
Historical Graphs
 
 
Tabular Data for February 26, 2017
Time Temperature Dew Point Pressure Wind Wind Speed Wind Gust Humidity Rainfall Rate (Hourly) solar Conditions
00:00 48.9 °F /  9.4 °C 47.2 °F /  8.4 °C 29.60 in /  1002.3 hPa SSW 8.0 mph /  12.9 km/h 16.0 mph /  25.7 km/h 94 % 0.00 in /  0 mm 0 W/m2
00:05 48.9 °F /  9.4 °C 47.2 °F /  8.4 °C 29.60 in /  1002.3 hPa SW 8.0 mph /  12.9 km/h 16.0 mph /  25.7 km/h 94 % 0.00 in /  0 mm 0 W/m2
00:15 48.9 °F /  9.4 °C 47.2 °F /  8.4 °C 29.60 in /  1002.3 hPa SW 8.0 mph /  12.9 km/h 8.0 mph /  12.9 km/h 94 % 0.00 in /  0 mm 0 W/m2
00:20 48.9 °F /  9.4 °C 47.2 °F /  8.4 °C 29.60 in /  1002.3 hPa SW 7.0 mph /  11.3 km/h 7.0 mph /  11.3 km/h 94 % 0.00 in /  0 mm 0 W/m2
00:30 49.0 °F /  9.4 °C 47.3 °F /  8.5 °C 29.60 in /  1002.3 hPa SSW 9.0 mph /  14.5 km/h 9.0 mph /  14.5 km/h 94 % 0.00 in /  0 mm 0 W/m2
00:35 49.1 °F /  9.5 °C 47.4 °F /  8.6 °C 29.60 in /  1002.3 hPa SSW 9.0 mph /  14.5 km/h 13.0 mph /  20.9 km/h 94 % 0.00 in /  0 mm 0 W/m2
00:45 49.1 °F /  9.5 °C 47.4 °F /  8.6 °C 29.60 in /  1002.3 hPa SSW 7.0 mph /  11.3 km/h 8.0 mph /  12.9 km/h 94 % 0.00 in /  0 mm 0 W/m2
00:50 49.1 °F /  9.5 °C 47.4 °F /  8.6 °C 29.60 in /  1002.3 hPa SSW 7.0 mph /  11.3 km/h 7.0 mph /  11.3 km/h 94 % 0.00 in /  0 mm 0 W/m2
00:55 49.0 °F /  9.4 °C 47.3 °F /  8.5 °C 29.60 in /  1002.3 hPa South 6.0 mph /  9.7 km/h 7.0 mph /  11.3 km/h 94 % 0.00 in /  0 mm 0 W/m2
01:00 49.0 °F /  9.4 °C 47.6 °F /  8.7 °C 29.60 in /  1002.3 hPa SSW 6.0 mph /  9.7 km/h 6.0 mph /  9.7 km/h 95 % 0.00 in /  0 mm 0 W/m2
01:05 49.0 °F /  9.4 °C 47.6 °F /  8.7 °C 29.60 in /  1002.3 hPa SSE 6.0 mph /  9.7 km/h 15.0 mph /  24.1 km/h 95 % 0.00 in /  0 mm 0 W/m2
01:10 49.0 °F /  9.4 °C 47.6 °F /  8.7 °C 29.60 in /  1002.3 hPa SSW 4.0 mph /  6.4 km/h 4.0 mph /  6.4 km/h 95 % 0.00 in /  0 mm 0 W/m2
01:20 49.0 °F /  9.4 °C 47.6 °F /  8.7 °C 29.59 in /  1001.9 hPa SSW 5.0 mph /  8 km/h 15.0 mph /  24.1 km/h 95 % 0.00 in /  0 mm 0 W/m2
01:25 49.1 °F /  9.5 °C 47.7 °F /  8.7 °C 29.59 in /  1001.9 hPa SSW 5.0 mph /  8 km/h 15.0 mph /  24.1 km/h 95 % 0.00 in /  0 mm 0 W/m2
01:30 49.1 °F /  9.5 °C 47.7 °F /  8.7 °C 29.59 in /  1001.9 hPa SW 4.0 mph /  6.4 km/h 15.0 mph /  24.1 km/h 95 % 0.00 in /  0 mm 0 W/m2
01:35 49.1 °F /  9.5 °C 47.7 °F /  8.7 °C 29.59 in /  1001.9 hPa SW 3.0 mph /  4.8 km/h 15.0 mph /  24.1 km/h 95 % 0.00 in /  0 mm 0 W/m2
01:40 49.1 °F /  9.5 °C 47.7 °F /  8.7 °C 29.59 in /  1001.9 hPa SW 2.0 mph /  3.2 km/h 15.0 mph /  24.1 km/h 95 % 0.00 in /  0 mm 0 W/m2
01:50 49.2 °F /  9.6 °C 47.8 °F /  8.8 °C 29.59 in /  1001.9 hPa SW 1.0 mph /  1.6 km/h 1.0 mph /  1.6 km/h 95 % 0.00 in /  0 mm 0 W/m2
02:00 49.1 °F /  9.5 °C 47.7 °F /  8.7 °C 29.59 in /  1001.9 hPa Calm   15.0 mph /  24.1 km/h 95 % 0.00 in /  0 mm 0 W/m2
02:05 49.1 °F /  9.5 °C 47.7 °F /  8.7 °C 29.59 in /  1001.9 hPa Calm   15.0 mph /  24.1 km/h 95 % 0.00 in /  0 mm 0 W/m2
02:10 49.2 °F /  9.6 °C 47.8 °F /  8.8 °C 29.59 in /  1001.9 hPa WSW 2.0 mph /  3.2 km/h 15.0 mph /  24.1 km/h 95 % 0.00 in /  0 mm 0 W/m2
02:15 49.2 °F /  9.6 °C 47.8 °F /  8.8 °C 29.59 in /  1001.9 hPa WSW 2.0 mph /  3.2 km/h 15.0 mph /  24.1 km/h 95 % 0.00 in /  0 mm 0 W/m2
02:25 49.2 °F /  9.6 °C 47.8 °F /  8.8 °C 29.59 in /  1001.9 hPa Calm   15.0 mph /  24.1 km/h 95 % 0.00 in /  0 mm 0 W/m2
02:30 49.2 °F /  9.6 °C 47.8 °F /  8.8 °C 29.59 in /  1001.9 hPa Calm   15.0 mph /  24.1 km/h 95 % 0.00 in /  0 mm 0 W/m2
02:35 49.1 °F /  9.5 °C 47.7 °F /  8.7 °C 29.58 in /  1001.6 hPa Calm   15.0 mph /  24.1 km/h 95 % 0.00 in /  0 mm 0 W/m2
02:40 49.0 °F /  9.4 °C 47.6 °F /  8.7 °C 29.58 in /  1001.6 hPa WNW 2.0 mph /  3.2 km/h 15.0 mph /  24.1 km/h 95 % 0.00 in /  0 mm 0 W/m2
02:45 48.8 °F /  9.3 °C 47.4 °F /  8.6 °C 29.59 in /  1001.9 hPa WNW 6.0 mph /  9.7 km/h 15.0 mph /  24.1 km/h 95 % 0.00 in /  0 mm 0 W/m2
02:50 48.5 °F /  9.2 °C 47.1 °F /  8.4 °C 29.59 in /  1001.9 hPa NW 8.0 mph /  12.9 km/h 15.0 mph /  24.1 km/h 95 % 0.00 in /  0 mm 0 W/m2
03:00 48.2 °F /  9 °C 46.8 °F /  8.2 °C 29.59 in /  1001.9 hPa WNW 8.0 mph /  12.9 km/h 15.0 mph /  24.1 km/h 95 % 0.00 in /  0 mm 0 W/m2
03:05 48.1 °F /  8.9 °C 46.5 °F /  8.1 °C 29.59 in /  1001.9 hPa West 9.0 mph /  14.5 km/h 15.0 mph /  24.1 km/h 94 % 0.00 in /  0 mm 0 W/m2
03:10 48.0 °F /  8.9 °C 46.4 °F /  8 °C 29.59 in /  1001.9 hPa West 7.0 mph /  11.3 km/h 7.0 mph /  11.3 km/h 94 % 0.00 in /  0 mm 0 W/m2
03:20 47.7 °F /  8.7 °C 46.1 °F /  7.8 °C 29.60 in /  1002.3 hPa West 6.0 mph /  9.7 km/h 15.0 mph /  24.1 km/h 94 % 0.00 in /  0 mm 0 W/m2
03:25 47.6 °F /  8.7 °C 46.0 °F /  7.8 °C 29.59 in /  1001.9 hPa WNW 6.0 mph /  9.7 km/h 15.0 mph /  24.1 km/h 94 % 0.00 in /  0 mm 0 W/m2
03:35 47.4 °F /  8.6 °C 45.5 °F /  7.5 °C 29.60 in /  1002.3 hPa West 6.0 mph /  9.7 km/h 7.0 mph /  11.3 km/h 93 % 0.00 in /  0 mm 0 W/m2
03:40 47.4 °F /  8.6 °C 45.5 °F /  7.5 °C 29.60 in /  1002.3 hPa West 5.0 mph /  8 km/h 5.0 mph /  8 km/h 93 % 0.00 in /  0 mm 0 W/m2
03:45 47.4 °F /  8.6 °C 45.5 °F /  7.5 °C 29.60 in /  1002.3 hPa West 5.0 mph /  8 km/h 6.0 mph /  9.7 km/h 93 % 0.00 in /  0 mm 0 W/m2
03:50 47.4 °F /  8.6 °C 45.2 °F /  7.3 °C 29.60 in /  1002.3 hPa West 5.0 mph /  8 km/h 5.0 mph /  8 km/h 92 % 0.00 in /  0 mm 0 W/m2
04:00 47.3 °F /  8.5 °C 45.1 °F /  7.3 °C 29.60 in /  1002.3 hPa West 3.0 mph /  4.8 km/h 3.0 mph /  4.8 km/h 92 % 0.00 in /  0 mm 0 W/m2
04:10 47.2 °F /  8.4 °C 45.0 °F /  7.2 °C 29.60 in /  1002.3 hPa West 4.0 mph /  6.4 km/h 15.0 mph /  24.1 km/h 92 % 0.00 in /  0 mm 0 W/m2
04:15 47.2 °F /  8.4 °C 44.7 °F /  7.1 °C 29.60 in /  1002.3 hPa West 5.0 mph /  8 km/h 15.0 mph /  24.1 km/h 91 % 0.00 in /  0 mm 0 W/m2
04:20 47.1 °F /  8.4 °C 44.6 °F /  7 °C 29.60 in /  1002.3 hPa West 7.0 mph /  11.3 km/h 15.0 mph /  24.1 km/h 91 % 0.00 in /  0 mm 0 W/m2
04:25 47.1 °F /  8.4 °C 44.6 °F /  7 °C 29.60 in /  1002.3 hPa West 8.0 mph /  12.9 km/h 15.0 mph /  24.1 km/h 91 % 0.00 in /  0 mm 0 W/m2
04:30 47.0 °F /  8.3 °C 44.5 °F /  6.9 °C 29.60 in /  1002.3 hPa West 5.0 mph /  8 km/h 5.0 mph /  8 km/h 91 % 0.00 in /  0 mm 0 W/m2
04:40 46.9 °F /  8.3 °C 44.4 °F /  6.9 °C 29.61 in /  1002.6 hPa WSW 4.0 mph /  6.4 km/h 15.0 mph /  24.1 km/h 91 % 0.00 in /  0 mm 0 W/m2
04:45 46.8 °F /  8.2 °C 44.3 °F /  6.8 °C 29.61 in /  1002.6 hPa West 6.0 mph /  9.7 km/h 15.0 mph /  24.1 km/h 91 % 0.00 in /  0 mm 0 W/m2
04:50 46.7 °F /  8.2 °C 44.2 °F /  6.8 °C 29.61 in /  1002.6 hPa West 6.0 mph /  9.7 km/h 6.0 mph /  9.7 km/h 91 % 0.00 in /  0 mm 0 W/m2
04:55 46.7 °F /  8.2 °C 44.2 °F /  6.8 °C 29.61 in /  1002.6 hPa West 5.0 mph /  8 km/h 15.0 mph /  24.1 km/h 91 % 0.00 in /  0 mm 0 W/m2
05:00 46.6 °F /  8.1 °C 43.8 °F /  6.6 °C 29.61 in /  1002.6 hPa West 7.0 mph /  11.3 km/h 15.0 mph /  24.1 km/h 90 % 0.00 in /  0 mm 0 W/m2
05:05 46.7 °F /  8.2 °C 43.6 °F /  6.4 °C 29.61 in /  1002.6 hPa West 7.0 mph /  11.3 km/h 15.0 mph /  24.1 km/h 89 % 0.00 in /  0 mm 0 W/m2
05:15 46.6 °F /  8.1 °C 43.5 °F /  6.4 °C 29.61 in /  1002.6 hPa WNW 4.0 mph /  6.4 km/h 15.0 mph /  24.1 km/h 89 % 0.00 in /  0 mm 0 W/m2
05:20 46.6 °F /  8.1 °C 43.2 °F /  6.2 °C 29.61 in /  1002.6 hPa WNW 3.0 mph /  4.8 km/h 15.0 mph /  24.1 km/h 88 % 0.00 in /  0 mm 0 W/m2
05:25 46.5 °F /  8.1 °C 43.1 °F /  6.2 °C 29.61 in /  1002.6 hPa NW 3.0 mph /  4.8 km/h 15.0 mph /  24.1 km/h 88 % 0.00 in /  0 mm 0 W/m2
05:35 46.4 °F /  8 °C 42.7 °F /  5.9 °C 29.61 in /  1002.6 hPa WSW 3.0 mph /  4.8 km/h 15.0 mph /  24.1 km/h 87 % 0.00 in /  0 mm 0 W/m2
05:40 46.4 °F /  8 °C 42.7 °F /  5.9 °C 29.62 in /  1002.9 hPa SW 2.0 mph /  3.2 km/h 15.0 mph /  24.1 km/h 87 % 0.00 in /  0 mm 0 W/m2
05:50 46.3 °F /  7.9 °C 42.6 °F /  5.9 °C 29.61 in /  1002.6 hPa West 3.0 mph /  4.8 km/h 15.0 mph /  24.1 km/h 87 % 0.00 in /  0 mm 0 W/m2
05:55 46.3 °F /  7.9 °C 42.3 °F /  5.7 °C 29.61 in /  1002.6 hPa West 5.0 mph /  8 km/h 15.0 mph /  24.1 km/h 86 % 0.00 in /  0 mm 0 W/m2
06:00 46.3 °F /  7.9 °C 42.3 °F /  5.7 °C 29.61 in /  1002.6 hPa WSW 6.0 mph /  9.7 km/h 6.0 mph /  9.7 km/h 86 % 0.00 in /  0 mm 0 W/m2
06:05 46.3 °F /  7.9 °C 42.0 °F /  5.6 °C 29.61 in /  1002.6 hPa SW 6.0 mph /  9.7 km/h 9.0 mph /  14.5 km/h 85 % 0.00 in /  0 mm 0 W/m2
06:10 46.2 °F /  7.9 °C 41.9 °F /  5.5 °C 29.61 in /  1002.6 hPa WSW 6.0 mph /  9.7 km/h 6.0 mph /  9.7 km/h 85 % 0.00 in /  0 mm 0 W/m2
06:20 46.2 °F /  7.9 °C 41.6 °F /  5.3 °C 29.61 in /  1002.6 hPa SW 6.0 mph /  9.7 km/h 15.0 mph /  24.1 km/h 84 % 0.00 in /  0 mm 0 W/m2
06:25 46.2 °F /  7.9 °C 41.6 °F /  5.3 °C 29.61 in /  1002.6 hPa West 7.0 mph /  11.3 km/h 15.0 mph /  24.1 km/h 84 % 0.00 in /  0 mm 0 W/m2
06:30 46.2 °F /  7.9 °C 41.3 °F /  5.2 °C 29.61 in /  1002.6 hPa WSW 8.0 mph /  12.9 km/h 15.0 mph /  24.1 km/h 83 % 0.00 in /  0 mm 0 W/m2
06:35 46.2 °F /  7.9 °C 41.3 °F /  5.2 °C 29.61 in /  1002.6 hPa WSW 9.0 mph /  14.5 km/h 15.0 mph /  24.1 km/h 83 % 0.00 in /  0 mm 0 W/m2
06:40 46.3 °F /  7.9 °C 41.1 °F /  5.1 °C 29.61 in /  1002.6 hPa WSW 10.0 mph /  16.1 km/h 10.0 mph /  16.1 km/h 82 % 0.00 in /  0 mm 0 W/m2
06:45 46.3 °F /  7.9 °C 41.1 °F /  5.1 °C 29.61 in /  1002.6 hPa WSW 10.0 mph /  16.1 km/h 13.0 mph /  20.9 km/h 82 % 0.00 in /  0 mm 0 W/m2
06:55 46.3 °F /  7.9 °C 41.4 °F /  5.2 °C 29.61 in /  1002.6 hPa SW 8.0 mph /  12.9 km/h 15.0 mph /  24.1 km/h 83 % 0.00 in /  0 mm 0 W/m2
07:00 46.2 °F /  7.9 °C 41.3 °F /  5.2 °C 29.61 in /  1002.6 hPa West 7.0 mph /  11.3 km/h 7.0 mph /  11.3 km/h 83 % 0.00 in /  0 mm 5 W/m2
07:10 46.2 °F /  7.9 °C 41.6 °F /  5.3 °C 29.61 in /  1002.6 hPa SW 6.0 mph /  9.7 km/h 15.0 mph /  24.1 km/h 84 % 0.00 in /  0 mm 12 W/m2
07:15 46.2 °F /  7.9 °C 41.6 °F /  5.3 °C 29.60 in /  1002.3 hPa WSW 6.0 mph /  9.7 km/h 15.0 mph /  24.1 km/h 84 % 0.00 in /  0 mm 14 W/m2
07:20 46.4 °F /  8 °C 41.5 °F /  5.3 °C 29.60 in /  1002.3 hPa WSW 8.0 mph /  12.9 km/h 8.0 mph /  12.9 km/h 83 % 0.00 in /  0 mm 9 W/m2
07:30 46.6 °F /  8.1 °C 41.4 °F /  5.2 °C 29.60 in /  1002.3 hPa SSW 10.0 mph /  16.1 km/h 15.0 mph /  24.1 km/h 82 % 0.00 in /  0 mm 14 W/m2
07:35 46.7 °F /  8.2 °C 41.5 °F /  5.3 °C 29.61 in /  1002.6 hPa SW 10.0 mph /  16.1 km/h 15.0 mph /  24.1 km/h 82 % 0.00 in /  0 mm 16 W/m2
07:40 46.6 °F /  8.1 °C 41.4 °F /  5.2 °C 29.61 in /  1002.6 hPa SW 8.0 mph /  12.9 km/h 15.0 mph /  24.1 km/h 82 % 0.00 in /  0 mm 14 W/m2
07:45 46.6 °F /  8.1 °C 41.4 °F /  5.2 °C 29.61 in /  1002.6 hPa WSW 9.0 mph /  14.5 km/h 15.0 mph /  24.1 km/h 82 % 0.00 in /  0 mm 12 W/m2
07:50 46.6 °F /  8.1 °C 41.4 °F /  5.2 °C 29.61 in /  1002.6 hPa SW 9.0 mph /  14.5 km/h 9.0 mph /  14.5 km/h 82 % 0.00 in /  0 mm 14 W/m2
08:00 46.7 °F /  8.2 °C 41.5 °F /  5.3 °C 29.60 in /  1002.3 hPa WSW 10.0 mph /  16.1 km/h 15.0 mph /  24.1 km/h 82 % 0.00 in /  0 mm 39 W/m2
08:05 46.7 °F /  8.2 °C 41.8 °F /  5.4 °C 29.60 in /  1002.3 hPa SW 11.0 mph /  17.7 km/h 15.0 mph /  24.1 km/h 83 % 0.00 in /  0 mm 46 W/m2
08:10 46.7 °F /  8.2 °C 42.1 °F /  5.6 °C 29.60 in /  1002.3 hPa SW 11.0 mph /  17.7 km/h 21.0 mph /  33.8 km/h 84 % 0.00 in /  0 mm 56 W/m2
08:15 46.6 °F /  8.1 °C 42.0 °F /  5.6 °C 29.59 in /  1001.9 hPa South 12.0 mph /  19.3 km/h 21.0 mph /  33.8 km/h 84 % 0.00 in /  0 mm 40 W/m2
08:20 46.6 °F /  8.1 °C 42.3 °F /  5.7 °C 29.59 in /  1001.9 hPa SW 13.0 mph /  20.9 km/h 15.0 mph /  24.1 km/h 85 % 0.00 in /  0 mm 54 W/m2
08:25 46.6 °F /  8.1 °C 42.3 °F /  5.7 °C 29.58 in /  1001.6 hPa SW 12.0 mph /  19.3 km/h 15.0 mph /  24.1 km/h 85 % 0.00 in /  0 mm 84 W/m2
08:35 46.9 °F /  8.3 °C 42.6 °F /  5.9 °C 29.58 in /  1001.6 hPa South 10.0 mph /  16.1 km/h 15.0 mph /  24.1 km/h 85 % 0.00 in /  0 mm 58 W/m2
08:45 47.0 °F /  8.3 °C 42.4 °F /  5.8 °C 29.57 in /  1001.2 hPa SW 10.0 mph /  16.1 km/h 16.0 mph /  25.7 km/h 84 % 0.00 in /  0 mm 186 W/m2
08:50 47.3 °F /  8.5 °C 42.7 °F /  5.9 °C 29.57 in /  1001.2 hPa SSW 12.0 mph /  19.3 km/h 20.0 mph /  32.2 km/h 84 % 0.00 in /  0 mm 142 W/m2
08:55 47.5 °F /  8.6 °C 42.6 °F /  5.9 °C 29.57 in /  1001.2 hPa SSW 13.0 mph /  20.9 km/h 20.0 mph /  32.2 km/h 83 % 0.00 in /  0 mm 257 W/m2
09:00 47.9 °F /  8.8 °C 43.0 °F /  6.1 °C 29.57 in /  1001.2 hPa SW 13.0 mph /  20.9 km/h 15.0 mph /  24.1 km/h 83 % 0.00 in /  0 mm 336 W/m2
09:10 48.2 °F /  9 °C 43.0 °F /  6.1 °C 29.57 in /  1001.2 hPa SW 15.0 mph /  24.1 km/h 15.0 mph /  24.1 km/h 82 % 0.00 in /  0 mm 155 W/m2
09:15 48.2 °F /  9 °C 43.0 °F /  6.1 °C 29.57 in /  1001.2 hPa SW 14.0 mph /  22.5 km/h 15.0 mph /  24.1 km/h 82 % 0.00 in /  0 mm 232 W/m2
09:20 48.5 °F /  9.2 °C 43.3 °F /  6.3 °C 29.57 in /  1001.2 hPa SW 13.0 mph /  20.9 km/h 13.0 mph /  20.9 km/h 82 % 0.00 in /  0 mm 276 W/m2
09:25 48.7 °F /  9.3 °C 42.8 °F /  6 °C 29.57 in /  1001.2 hPa WSW 14.0 mph /  22.5 km/h 14.0 mph /  22.5 km/h 80 % 0.00 in /  0 mm 141 W/m2
09:30 48.7 °F /  9.3 °C 42.8 °F /  6 °C 29.57 in /  1001.2 hPa West 13.0 mph /  20.9 km/h 13.0 mph /  20.9 km/h 80 % 0.00 in /  0 mm 90 W/m2
09:40 48.6 °F /  9.2 °C 42.7 °F /  5.9 °C 29.57 in /  1001.2 hPa SW 14.0 mph /  22.5 km/h 15.0 mph /  24.1 km/h 80 % 0.00 in /  0 mm 135 W/m2
09:45 48.7 °F /  9.3 °C 42.8 °F /  6 °C 29.58 in /  1001.6 hPa WSW 15.0 mph /  24.1 km/h 15.0 mph /  24.1 km/h 80 % 0.00 in /  0 mm 139 W/m2
09:50 48.9 °F /  9.4 °C 42.7 °F /  5.9 °C 29.57 in /  1001.2 hPa WSW 17.0 mph /  27.4 km/h 17.0 mph /  27.4 km/h 79 % 0.00 in /  0 mm 265 W/m2
09:55 49.1 °F /  9.5 °C 43.2 °F /  6.2 °C 29.57 in /  1001.2 hPa West 17.0 mph /  27.4 km/h 17.0 mph /  27.4 km/h 80 % 0.00 in /  0 mm 339 W/m2
10:05 49.7 °F /  9.8 °C 43.1 °F /  6.2 °C 29.56 in /  1000.9 hPa West 17.0 mph /  27.4 km/h 18.0 mph /  29 km/h 78 % 0.00 in /  0 mm 297 W/m2
10:10 49.6 °F /  9.8 °C 43.0 °F /  6.1 °C 29.55 in /  1000.6 hPa WSW 18.0 mph /  29 km/h 21.0 mph /  33.8 km/h 78 % 0.00 in /  0 mm 253 W/m2
10:20 49.5 °F /  9.7 °C 42.9 °F /  6.1 °C 29.55 in /  1000.6 hPa SW 16.0 mph /  25.7 km/h 19.0 mph /  30.6 km/h 78 % 0.00 in /  0 mm 251 W/m2
10:25 49.5 °F /  9.7 °C 43.3 °F /  6.3 °C 29.55 in /  1000.6 hPa WSW 16.0 mph /  25.7 km/h 19.0 mph /  30.6 km/h 79 % 0.00 in /  0 mm 230 W/m2
10:30 49.5 °F /  9.7 °C 43.3 °F /  6.3 °C 29.55 in /  1000.6 hPa SW 17.0 mph /  27.4 km/h 27.0 mph /  43.5 km/h 79 % 0.00 in /  0 mm 146 W/m2
10:35 49.3 °F /  9.6 °C 43.1 °F /  6.2 °C 29.55 in /  1000.6 hPa WSW 17.0 mph /  27.4 km/h 27.0 mph /  43.5 km/h 79 % 0.00 in /  0 mm 104 W/m2
10:40 49.1 °F /  9.5 °C 42.9 °F /  6.1 °C 29.55 in /  1000.6 hPa WSW 18.0 mph /  29 km/h 22.0 mph /  35.4 km/h 79 % 0.00 in /  0 mm 95 W/m2
10:50 49.2 °F /  9.6 °C 43.0 °F /  6.1 °C 29.54 in /  1000.2 hPa SW 17.0 mph /  27.4 km/h 23.0 mph /  37 km/h 79 % 0.00 in /  0 mm 125 W/m2
10:55 49.2 °F /  9.6 °C 43.0 °F /  6.1 °C 29.54 in /  1000.2 hPa SW 16.0 mph /  25.7 km/h 23.0 mph /  37 km/h 79 % 0.00 in /  0 mm 142 W/m2
11:00 49.3 °F /  9.6 °C 43.1 °F /  6.2 °C 29.53 in /  999.9 hPa SW 17.0 mph /  27.4 km/h 18.0 mph /  29 km/h 79 % 0.00 in /  0 mm 141 W/m2
11:05 49.3 °F /  9.6 °C 43.1 °F /  6.2 °C 29.54 in /  1000.2 hPa South 17.0 mph /  27.4 km/h 21.0 mph /  33.8 km/h 79 % 0.00 in /  0 mm 165 W/m2
11:10 49.4 °F /  9.7 °C 43.2 °F /  6.2 °C 29.54 in /  1000.2 hPa SW 16.0 mph /  25.7 km/h 21.0 mph /  33.8 km/h 79 % 0.00 in /  0 mm 174 W/m2
11:20 49.7 °F /  9.8 °C 43.5 °F /  6.4 °C 29.54 in /  1000.2 hPa SW 13.0 mph /  20.9 km/h 15.0 mph /  24.1 km/h 79 % 0.00 in /  0 mm 167 W/m2
11:25 49.8 °F /  9.9 °C 43.5 °F /  6.4 °C 29.54 in /  1000.2 hPa SW 12.0 mph /  19.3 km/h 15.0 mph /  24.1 km/h 79 % 0.00 in /  0 mm 200 W/m2
11:30 50.0 °F /  10 °C 43.7 °F /  6.5 °C 29.54 in /  1000.2 hPa SSW 13.0 mph /  20.9 km/h 13.0 mph /  20.9 km/h 79 % 0.00 in /  0 mm 202 W/m2
11:40 50.2 °F /  10.1 °C 43.9 °F /  6.6 °C 29.53 in /  999.9 hPa South 11.0 mph /  17.7 km/h 11.0 mph /  17.7 km/h 79 % 0.00 in /  0 mm 93 W/m2
11:45 50.3 °F /  10.2 °C 43.7 °F /  6.5 °C 29.53 in /  999.9 hPa SW 11.0 mph /  17.7 km/h 15.0 mph /  24.1 km/h 78 % 0.00 in /  0 mm 111 W/m2
11:55 50.4 °F /  10.2 °C 43.8 °F /  6.6 °C 29.52 in /  999.5 hPa SW 10.0 mph /  16.1 km/h 15.0 mph /  24.1 km/h 78 % 0.00 in /  0 mm 67 W/m2
12:00 50.4 °F /  10.2 °C 43.8 °F /  6.6 °C 29.52 in /  999.5 hPa South 9.0 mph /  14.5 km/h 9.0 mph /  14.5 km/h 78 % 0.00 in /  0 mm 60 W/m2
12:05 50.4 °F /  10.2 °C 43.8 °F /  6.6 °C 29.51 in /  999.2 hPa South 8.0 mph /  12.9 km/h 15.0 mph /  24.1 km/h 78 % 0.00 in /  0 mm 56 W/m2
12:10 50.4 °F /  10.2 °C 43.8 °F /  6.6 °C 29.51 in /  999.2 hPa SSW 8.0 mph /  12.9 km/h 15.0 mph /  24.1 km/h 78 % 0.00 in /  0 mm 63 W/m2
12:15 50.5 °F /  10.3 °C 43.9 °F /  6.6 °C 29.50 in /  998.9 hPa SSW 9.0 mph /  14.5 km/h 15.0 mph /  24.1 km/h 78 % 0.00 in /  0 mm 91 W/m2
12:20 50.5 °F /  10.3 °C 43.9 °F /  6.6 °C 29.50 in /  998.9 hPa SSW 11.0 mph /  17.7 km/h 11.0 mph /  17.7 km/h 78 % 0.00 in /  0 mm 116 W/m2
12:30 50.5 °F /  10.3 °C 43.6 °F /  6.4 °C 29.49 in /  998.5 hPa SW 11.0 mph /  17.7 km/h 11.0 mph /  17.7 km/h 77 % 0.00 in /  0 mm 137 W/m2
12:35 50.6 °F /  10.3 °C 44.0 °F /  6.7 °C 29.49 in /  998.5 hPa SW 12.0 mph /  19.3 km/h 12.0 mph /  19.3 km/h 78 % 0.00 in /  0 mm 153 W/m2
12:40 50.6 °F /  10.3 °C 44.0 °F /  6.7 °C 29.49 in /  998.5 hPa SW 10.0 mph /  16.1 km/h 15.0 mph /  24.1 km/h 78 % 0.00 in /  0 mm 153 W/m2
12:45 50.4 °F /  10.2 °C 43.8 °F /  6.6 °C 29.49 in /  998.5 hPa SSW 13.0 mph /  20.9 km/h 15.0 mph /  24.1 km/h 78 % 0.00 in /  0 mm 183 W/m2
12:50 50.5 °F /  10.3 °C 44.2 °F /  6.8 °C 29.48 in /  998.2 hPa SSE 14.0 mph /  22.5 km/h 22.0 mph /  35.4 km/h 79 % 0.00 in /  0 mm 179 W/m2
13:00 50.4 °F /  10.2 °C 44.1 °F /  6.7 °C 29.48 in /  998.2 hPa SSW 17.0 mph /  27.4 km/h 17.0 mph /  27.4 km/h 79 % 0.00 in /  0 mm 104 W/m2
13:05 50.4 °F /  10.2 °C 44.1 °F /  6.7 °C 29.47 in /  997.9 hPa South 14.0 mph /  22.5 km/h 17.0 mph /  27.4 km/h 79 % 0.00 in /  0 mm 114 W/m2
13:10 50.4 °F /  10.2 °C 44.5 °F /  6.9 °C 29.47 in /  997.9 hPa WSW 12.0 mph /  19.3 km/h 15.0 mph /  24.1 km/h 80 % 0.00 in /  0 mm 121 W/m2
13:15 50.5 °F /  10.3 °C 44.6 °F /  7 °C 29.46 in /  997.5 hPa SSW 12.0 mph /  19.3 km/h 15.0 mph /  24.1 km/h 80 % 0.00 in /  0 mm 142 W/m2
13:20 50.5 °F /  10.3 °C 44.6 °F /  7 °C 29.46 in /  997.5 hPa SSW 14.0 mph /  22.5 km/h 14.0 mph /  22.5 km/h 80 % 0.00 in /  0 mm 200 W/m2
13:25 50.6 °F /  10.3 °C 44.7 °F /  7.1 °C 29.45 in /  997.2 hPa SSW 17.0 mph /  27.4 km/h 17.0 mph /  27.4 km/h 80 % 0.00 in /  0 mm 234 W/m2
13:30 50.6 °F /  10.3 °C 45.0 °F /  7.2 °C 29.44 in /  996.8 hPa SW 19.0 mph /  30.6 km/h 20.0 mph /  32.2 km/h 81 % 0.00 in /  0 mm 260 W/m2
13:35 50.8 °F /  10.4 °C 45.2 °F /  7.3 °C 29.44 in /  996.8 hPa WSW 19.0 mph /  30.6 km/h 20.0 mph /  32.2 km/h 81 % 0.00 in /  0 mm 295 W/m2
13:40 51.1 °F /  10.6 °C 45.5 °F /  7.5 °C 29.43 in /  996.5 hPa WSW 17.0 mph /  27.4 km/h 17.0 mph /  27.4 km/h 81 % 0.00 in /  0 mm 396 W/m2
13:50 51.4 °F /  10.8 °C 45.4 °F /  7.4 °C 29.42 in /  996.2 hPa WSW 17.0 mph /  27.4 km/h 25.0 mph /  40.2 km/h 80 % 0.00 in /  0 mm 302 W/m2
13:55 51.5 °F /  10.8 °C 45.5 °F /  7.5 °C 29.42 in /  996.2 hPa SW 21.0 mph /  33.8 km/h 25.0 mph /  40.2 km/h 80 % 0.00 in /  0 mm 543 W/m2
14:00 51.9 °F /  11.1 °C 45.9 °F /  7.7 °C 29.42 in /  996.2 hPa SSW 22.0 mph /  35.4 km/h 23.0 mph /  37 km/h 80 % 0.00 in /  0 mm 561 W/m2
14:10 52.2 °F /  11.2 °C 45.5 °F /  7.5 °C 29.41 in /  995.8 hPa SW 23.0 mph /  37 km/h 26.0 mph /  41.8 km/h 78 % 0.00 in /  0 mm 374 W/m2
14:15 52.0 °F /  11.1 °C 45.7 °F /  7.6 °C 29.40 in /  995.5 hPa WSW 24.0 mph /  38.6 km/h 29.0 mph /  46.7 km/h 79 % 0.00 in /  0 mm 301 W/m2
14:20 51.5 °F /  10.8 °C 45.5 °F /  7.5 °C 29.40 in /  995.5 hPa SW 22.0 mph /  35.4 km/h 22.0 mph /  35.4 km/h 80 % 0.00 in /  0 mm 304 W/m2
14:25 51.2 °F /  10.7 °C 45.6 °F /  7.6 °C 29.40 in /  995.5 hPa SW 20.0 mph /  32.2 km/h 22.0 mph /  35.4 km/h 81 % 0.00 in /  0 mm 216 W/m2
14:30 51.0 °F /  10.6 °C 45.4 °F /  7.4 °C 29.40 in /  995.5 hPa SW 19.0 mph /  30.6 km/h 19.0 mph /  30.6 km/h 81 % 0.00 in /  0 mm 334 W/m2
14:40 51.2 °F /  10.7 °C 45.2 °F /  7.3 °C 29.39 in /  995.1 hPa South 20.0 mph /  32.2 km/h 20.0 mph /  32.2 km/h 80 % 0.00 in /  0 mm 213 W/m2
14:45 51.2 °F /  10.7 °C 45.2 °F /  7.3 °C 29.39 in /  995.1 hPa SSW 20.0 mph /  32.2 km/h 20.0 mph /  32.2 km/h 80 % 0.00 in /  0 mm 220 W/m2
14:50 51.1 °F /  10.6 °C 45.1 °F /  7.3 °C 29.38 in /  994.8 hPa SW 21.0 mph /  33.8 km/h 21.0 mph /  33.8 km/h 80 % 0.00 in /  0 mm 199 W/m2
14:55 51.0 °F /  10.6 °C 45.4 °F /  7.4 °C 29.38 in /  994.8 hPa SSW 21.0 mph /  33.8 km/h 22.0 mph /  35.4 km/h 81 % 0.00 in /  0 mm 132 W/m2
15:05 50.9 °F /  10.5 °C 45.3 °F /  7.4 °C 29.38 in /  994.8 hPa SW 18.0 mph /  29 km/h 22.0 mph /  35.4 km/h 81 % 0.00 in /  0 mm 142 W/m2
15:10 50.9 °F /  10.5 °C 45.3 °F /  7.4 °C 29.38 in /  994.8 hPa South 18.0 mph /  29 km/h 18.0 mph /  29 km/h 81 % 0.00 in /  0 mm 158 W/m2
15:15 50.9 °F /  10.5 °C 45.6 °F /  7.6 °C 29.37 in /  994.5 hPa SSW 18.0 mph /  29 km/h 21.0 mph /  33.8 km/h 82 % 0.00 in /  0 mm 114 W/m2
15:25 50.9 °F /  10.5 °C 45.3 °F /  7.4 °C 29.37 in /  994.5 hPa SW 18.0 mph /  29 km/h 18.0 mph /  29 km/h 81 % 0.00 in /  0 mm 135 W/m2
15:30 51.0 °F /  10.6 °C 45.4 °F /  7.4 °C 29.37 in /  994.5 hPa SW 18.0 mph /  29 km/h 18.0 mph /  29 km/h 81 % 0.00 in /  0 mm 144 W/m2
15:35 51.2 °F /  10.7 °C 45.6 °F /  7.6 °C 29.36 in /  994.1 hPa SW 19.0 mph /  30.6 km/h 19.0 mph /  30.6 km/h 81 % 0.00 in /  0 mm 134 W/m2
15:40 51.2 °F /  10.7 °C 45.2 °F /  7.3 °C 29.36 in /  994.1 hPa South 20.0 mph /  32.2 km/h 20.0 mph /  32.2 km/h 80 % 0.00 in /  0 mm 90 W/m2
15:50 51.2 °F /  10.7 °C 45.2 °F /  7.3 °C 29.35 in /  993.8 hPa SW 20.0 mph /  32.2 km/h 20.0 mph /  32.2 km/h 80 % 0.00 in /  0 mm 107 W/m2
15:55 51.2 °F /  10.7 °C 45.2 °F /  7.3 °C 29.36 in /  994.1 hPa SW 19.0 mph /  30.6 km/h 20.0 mph /  32.2 km/h 80 % 0.00 in /  0 mm 69 W/m2
16:00 51.2 °F /  10.7 °C 45.2 °F /  7.3 °C 29.35 in /  993.8 hPa WSW 21.0 mph /  33.8 km/h 27.0 mph /  43.5 km/h 80 % 0.00 in /  0 mm 39 W/m2
16:05 51.2 °F /  10.7 °C 45.2 °F /  7.3 °C 29.35 in /  993.8 hPa SSW 20.0 mph /  32.2 km/h 27.0 mph /  43.5 km/h 80 % 0.00 in /  0 mm 76 W/m2
16:10 51.2 °F /  10.7 °C 45.2 °F /  7.3 °C 29.35 in /  993.8 hPa SW 19.0 mph /  30.6 km/h 25.0 mph /  40.2 km/h 80 % 0.00 in /  0 mm 49 W/m2
16:20 51.2 °F /  10.7 °C 45.2 °F /  7.3 °C 29.34 in /  993.5 hPa SW 20.0 mph /  32.2 km/h 22.0 mph /  35.4 km/h 80 % 0.00 in /  0 mm 42 W/m2
16:25 51.2 °F /  10.7 °C 45.2 °F /  7.3 °C 29.34 in /  993.5 hPa SSW 20.0 mph /  32.2 km/h 29.0 mph /  46.7 km/h 80 % 0.00 in /  0 mm 37 W/m2
16:30 51.1 °F /  10.6 °C 45.5 °F /  7.5 °C 29.34 in /  993.5 hPa SSW 19.0 mph /  30.6 km/h 20.0 mph /  32.2 km/h 81 % 0.00 in /  0 mm 21 W/m2
16:35 51.0 °F /  10.6 °C 45.4 °F /  7.4 °C 29.34 in /  993.5 hPa SSW 18.0 mph /  29 km/h 23.0 mph /  37 km/h 81 % 0.00 in /  0 mm 23 W/m2
16:45 51.1 °F /  10.6 °C 45.5 °F /  7.5 °C 29.34 in /  993.5 hPa SSW 20.0 mph /  32.2 km/h 25.0 mph /  40.2 km/h 81 % 0.00 in /  0 mm 23 W/m2
16:50 51.1 °F /  10.6 °C 45.8 °F /  7.7 °C 29.34 in /  993.5 hPa SSW 19.0 mph /  30.6 km/h 20.0 mph /  32.2 km/h 82 % 0.00 in /  0 mm 11 W/m2
17:00 51.2 °F /  10.7 °C 45.9 °F /  7.7 °C 29.34 in /  993.5 hPa SW 19.0 mph /  30.6 km/h 25.0 mph /  40.2 km/h 82 % 0.00 in /  0 mm 16 W/m2
17:05 51.1 °F /  10.6 °C 45.8 °F /  7.7 °C 29.33 in /  993.1 hPa SW 19.0 mph /  30.6 km/h 25.0 mph /  40.2 km/h 82 % 0.00 in /  0 mm 12 W/m2
17:10 51.0 °F /  10.6 °C 46.0 °F /  7.8 °C 29.34 in /  993.5 hPa SSW 20.0 mph /  32.2 km/h 24.0 mph /  38.6 km/h 83 % 0.00 in /  0 mm 12 W/m2
17:15 50.9 °F /  10.5 °C 46.2 °F /  7.9 °C 29.33 in /  993.1 hPa South 20.0 mph /  32.2 km/h 24.0 mph /  38.6 km/h 84 % 0.00 in /  0 mm 7 W/m2
17:20 50.6 °F /  10.3 °C 46.3 °F /  7.9 °C 29.33 in /  993.1 hPa SSW 19.0 mph /  30.6 km/h 19.0 mph /  30.6 km/h 85 % 0.00 in /  0 mm 7 W/m2
17:30 50.1 °F /  10.1 °C 46.7 °F /  8.2 °C 29.33 in /  993.1 hPa SW 19.0 mph /  30.6 km/h 19.0 mph /  30.6 km/h 88 % 0.00 in /  0 mm 0 W/m2
17:35 50.0 °F /  10 °C 46.6 °F /  8.1 °C 29.33 in /  993.1 hPa South 18.0 mph /  29 km/h 19.0 mph /  30.6 km/h 88 % 0.00 in /  0 mm 0 W/m2
17:40 49.9 °F /  9.9 °C 46.8 °F /  8.2 °C 29.34 in /  993.5 hPa SW 17.0 mph /  27.4 km/h 20.0 mph /  32.2 km/h 89 % 0.00 in /  0 mm 0 W/m2
17:50 49.6 °F /  9.8 °C 46.8 °F /  8.2 °C 29.33 in /  993.1 hPa South 17.0 mph /  27.4 km/h 17.0 mph /  27.4 km/h 90 % 0.00 in /  0 mm 0 W/m2
17:55 49.5 °F /  9.7 °C 47.0 °F /  8.3 °C 29.33 in /  993.1 hPa SSW 17.0 mph /  27.4 km/h 26.0 mph /  41.8 km/h 91 % 0.00 in /  0 mm 0 W/m2
18:05 49.3 °F /  9.6 °C 45.3 °F /  7.4 °C 29.34 in /  993.5 hPa SW 20.0 mph /  32.2 km/h 30.0 mph /  48.3 km/h 86 % 0.00 in /  0 mm 0 W/m2
18:10 49.4 °F /  9.7 °C 44.8 °F /  7.1 °C 29.34 in /  993.5 hPa SW 24.0 mph /  38.6 km/h 24.0 mph /  38.6 km/h 84 % 0.00 in /  0 mm 0 W/m2
18:15 49.2 °F /  9.6 °C 44.9 °F /  7.2 °C 29.33 in /  993.1 hPa SW 23.0 mph /  37 km/h 24.0 mph /  38.6 km/h 85 % 0.05 in /  1.27 mm 0 W/m2
18:20 49.2 °F /  9.6 °C 44.9 °F /  7.2 °C 29.34 in /  993.5 hPa NW 20.0 mph /  32.2 km/h 23.0 mph /  37 km/h 85 % 0.05 in /  1.27 mm 0 W/m2
18:25 49.2 °F /  9.6 °C 44.9 °F /  7.2 °C 29.33 in /  993.1 hPa WSW 21.0 mph /  33.8 km/h 23.0 mph /  37 km/h 85 % 0.05 in /  1.27 mm 0 W/m2
18:35 49.7 °F /  9.8 °C 44.7 °F /  7.1 °C 29.33 in /  993.1 hPa SSW 20.0 mph /  32.2 km/h 24.0 mph /  38.6 km/h 83 % 0.00 in /  0 mm 0 W/m2
18:40 49.9 °F /  9.9 °C 44.6 °F /  7 °C 29.34 in /  993.5 hPa SW 20.0 mph /  32.2 km/h 20.0 mph /  32.2 km/h 82 % 0.00 in /  0 mm 0 W/m2
18:45 49.9 °F /  9.9 °C 44.3 °F /  6.8 °C 29.34 in /  993.5 hPa WSW 19.0 mph /  30.6 km/h 20.0 mph /  32.2 km/h 81 % 0.00 in /  0 mm 0 W/m2
18:50 49.9 °F /  9.9 °C 44.3 °F /  6.8 °C 29.34 in /  993.5 hPa WSW 19.0 mph /  30.6 km/h 19.0 mph /  30.6 km/h 81 % 0.00 in /  0 mm 0 W/m2
18:55 49.8 °F /  9.9 °C 44.2 °F /  6.8 °C 29.34 in /  993.5 hPa WSW 17.0 mph /  27.4 km/h 19.0 mph /  30.6 km/h 81 % 0.00 in /  0 mm 0 W/m2
19:00 49.9 °F /  9.9 °C 44.3 °F /  6.8 °C 29.34 in /  993.5 hPa WSW 17.0 mph /  27.4 km/h 17.0 mph /  27.4 km/h 81 % 0.00 in /  0 mm 0 W/m2
19:10 49.8 °F /  9.9 °C 44.2 °F /  6.8 °C 29.34 in /  993.5 hPa SW 18.0 mph /  29 km/h 18.0 mph /  29 km/h 81 % 0.00 in /  0 mm 0 W/m2
19:20 49.9 °F /  9.9 °C 44.0 °F /  6.7 °C 29.34 in /  993.5 hPa WSW 17.0 mph /  27.4 km/h 23.0 mph /  37 km/h 80 % 0.00 in /  0 mm 0 W/m2
19:25 49.8 °F /  9.9 °C 43.9 °F /  6.6 °C 29.34 in /  993.5 hPa WSW 17.0 mph /  27.4 km/h 23.0 mph /  37 km/h 80 % 0.00 in /  0 mm 0 W/m2
19:30 49.8 °F /  9.9 °C 43.5 °F /  6.4 °C 29.34 in /  993.5 hPa WSW 19.0 mph /  30.6 km/h 19.0 mph /  30.6 km/h 79 % 0.00 in /  0 mm 0 W/m2
19:35 49.6 °F /  9.8 °C 43.4 °F /  6.3 °C 29.34 in /  993.5 hPa WSW 19.0 mph /  30.6 km/h 19.0 mph /  30.6 km/h 79 % 0.00 in /  0 mm 0 W/m2
19:45 49.2 °F /  9.6 °C 42.6 °F /  5.9 °C 29.35 in /  993.8 hPa WSW 18.0 mph /  29 km/h 20.0 mph /  32.2 km/h 78 % 0.00 in /  0 mm 0 W/m2
19:50 49.2 °F /  9.6 °C 42.6 °F /  5.9 °C 29.36 in /  994.1 hPa SSW 17.0 mph /  27.4 km/h 19.0 mph /  30.6 km/h 78 % 0.00 in /  0 mm 0 W/m2
19:55 49.1 °F /  9.5 °C 42.5 °F /  5.8 °C 29.36 in /  994.1 hPa West 16.0 mph /  25.7 km/h 20.0 mph /  32.2 km/h 78 % 0.00 in /  0 mm 0 W/m2
20:00 49.2 °F /  9.6 °C 42.6 °F /  5.9 °C 29.37 in /  994.5 hPa West 18.0 mph /  29 km/h 19.0 mph /  30.6 km/h 78 % 0.00 in /  0 mm 0 W/m2
20:05 49.0 °F /  9.4 °C 42.8 °F /  6 °C 29.37 in /  994.5 hPa WSW 19.0 mph /  30.6 km/h 19.0 mph /  30.6 km/h 79 % 0.00 in /  0 mm 0 W/m2
20:15 47.7 °F /  8.7 °C 42.8 °F /  6 °C 29.38 in /  994.8 hPa West 16.0 mph /  25.7 km/h 25.0 mph /  40.2 km/h 83 % 0.00 in /  0 mm 0 W/m2
20:20 47.3 °F /  8.5 °C 42.7 °F /  5.9 °C 29.37 in /  994.5 hPa WSW 15.0 mph /  24.1 km/h 15.0 mph /  24.1 km/h 84 % 0.00 in /  0 mm 0 W/m2
20:25 47.1 °F /  8.4 °C 42.8 °F /  6 °C 29.38 in /  994.8 hPa West 14.0 mph /  22.5 km/h 15.0 mph /  24.1 km/h 85 % 0.00 in /  0 mm 0 W/m2
20:30 47.1 °F /  8.4 °C 42.8 °F /  6 °C 29.37 in /  994.5 hPa SW 13.0 mph /  20.9 km/h 15.0 mph /  24.1 km/h 85 % 0.00 in /  0 mm 0 W/m2
20:35 47.1 °F /  8.4 °C 43.1 °F /  6.2 °C 29.37 in /  994.5 hPa WSW 13.0 mph /  20.9 km/h 18.0 mph /  29 km/h 86 % 0.00 in /  0 mm 0 W/m2
20:45 47.1 °F /  8.4 °C 43.1 °F /  6.2 °C 29.38 in /  994.8 hPa WSW 11.0 mph /  17.7 km/h 15.0 mph /  24.1 km/h 86 % 0.00 in /  0 mm 0 W/m2
20:55 47.1 °F /  8.4 °C 42.8 °F /  6 °C 29.38 in /  994.8 hPa West 11.0 mph /  17.7 km/h 15.0 mph /  24.1 km/h 85 % 0.00 in /  0 mm 0 W/m2
21:00 47.0 °F /  8.3 °C 42.7 °F /  5.9 °C 29.39 in /  995.1 hPa West 9.0 mph /  14.5 km/h 9.0 mph /  14.5 km/h 85 % 0.00 in /  0 mm 0 W/m2
21:05 46.8 °F /  8.2 °C 42.8 °F /  6 °C 29.39 in /  995.1 hPa West 8.0 mph /  12.9 km/h 15.0 mph /  24.1 km/h 86 % 0.00 in /  0 mm 0 W/m2
21:10 46.6 °F /  8.1 °C 42.6 °F /  5.9 °C 29.39 in /  995.1 hPa West 8.0 mph /  12.9 km/h 15.0 mph /  24.1 km/h 86 % 0.00 in /  0 mm 0 W/m2
21:15 46.6 °F /  8.1 °C 42.3 °F /  5.7 °C 29.39 in /  995.1 hPa WSW 9.0 mph /  14.5 km/h 15.0 mph /  24.1 km/h 85 % 0.00 in /  0 mm 0 W/m2
21:25 46.4 °F /  8 °C 42.1 °F /  5.6 °C 29.39 in /  995.1 hPa WNW 6.0 mph /  9.7 km/h 15.0 mph /  24.1 km/h 85 % 0.00 in /  0 mm 0 W/m2
21:30 46.2 °F /  7.9 °C 41.6 °F /  5.3 °C 29.39 in /  995.1 hPa WSW 6.0 mph /  9.7 km/h 6.0 mph /  9.7 km/h 84 % 0.00 in /  0 mm 0 W/m2
21:35 46.1 °F /  7.8 °C 41.5 °F /  5.3 °C 29.39 in /  995.1 hPa WSW 5.0 mph /  8 km/h 15.0 mph /  24.1 km/h 84 % 0.00 in /  0 mm 0 W/m2
21:40 45.8 °F /  7.7 °C 41.2 °F /  5.1 °C 29.39 in /  995.1 hPa WSW 2.0 mph /  3.2 km/h 2.0 mph /  3.2 km/h 84 % 0.00 in /  0 mm 0 W/m2
21:45 45.5 °F /  7.5 °C 40.9 °F /  4.9 °C 29.39 in /  995.1 hPa SW 2.0 mph /  3.2 km/h 15.0 mph /  24.1 km/h 84 % 0.00 in /  0 mm 0 W/m2
21:55 45.3 °F /  7.4 °C 40.4 °F /  4.7 °C 29.39 in /  995.1 hPa SW 4.0 mph /  6.4 km/h 15.0 mph /  24.1 km/h 83 % 0.00 in /  0 mm 0 W/m2
22:00 45.3 °F /  7.4 °C 40.1 °F /  4.5 °C 29.39 in /  995.1 hPa SSW 6.0 mph /  9.7 km/h 15.0 mph /  24.1 km/h 82 % 0.00 in /  0 mm 0 W/m2
22:10 45.3 °F /  7.4 °C 39.8 °F /  4.3 °C 29.39 in /  995.1 hPa SW 7.0 mph /  11.3 km/h 7.0 mph /  11.3 km/h 81 % 0.00 in /  0 mm 0 W/m2
22:15 45.3 °F /  7.4 °C 40.1 °F /  4.5 °C 29.38 in /  994.8 hPa WSW 5.0 mph /  8 km/h 15.0 mph /  24.1 km/h 82 % 0.00 in /  0 mm 0 W/m2
22:20 45.3 °F /  7.4 °C 40.1 °F /  4.5 °C 29.39 in /  995.1 hPa SW 5.0 mph /  8 km/h 15.0 mph /  24.1 km/h 82 % 0.00 in /  0 mm 0 W/m2
22:30 45.3 °F /  7.4 °C 40.4 °F /  4.7 °C 29.38 in /  994.8 hPa SW 6.0 mph /  9.7 km/h 15.0 mph /  24.1 km/h 83 % 0.00 in /  0 mm 0 W/m2
22:35 45.3 °F /  7.4 °C 40.4 °F /  4.7 °C 29.38 in /  994.8 hPa SW 5.0 mph /  8 km/h 15.0 mph /  24.1 km/h 83 % 0.00 in /  0 mm 0 W/m2
22:40 45.3 °F /  7.4 °C 40.7 °F /  4.8 °C 29.38 in /  994.8 hPa SW 6.0 mph /  9.7 km/h 6.0 mph /  9.7 km/h 84 % 0.00 in /  0 mm 0 W/m2
22:45 45.2 °F /  7.3 °C 40.7 °F /  4.8 °C 29.38 in /  994.8 hPa SW 5.0 mph /  8 km/h 15.0 mph /  24.1 km/h 84 % 0.00 in /  0 mm 0 W/m2
22:50 45.3 °F /  7.4 °C 41.1 °F /  5.1 °C 29.38 in /  994.8 hPa SSW 4.0 mph /  6.4 km/h 15.0 mph /  24.1 km/h 85 % 0.00 in /  0 mm 0 W/m2
22:55 45.2 °F /  7.3 °C 41.0 °F /  5 °C 29.38 in /  994.8 hPa SSW 3.0 mph /  4.8 km/h 15.0 mph /  24.1 km/h 85 % 0.00 in /  0 mm 0 W/m2
23:00 45.2 °F /  7.3 °C 41.3 °F /  5.2 °C 29.38 in /  994.8 hPa SSW 3.0 mph /  4.8 km/h 15.0 mph /  24.1 km/h 86 % 0.00 in /  0 mm 0 W/m2
23:05 45.1 °F /  7.3 °C 41.2 °F /  5.1 °C 29.38 in /  994.8 hPa SSW 2.0 mph /  3.2 km/h 15.0 mph /  24.1 km/h 86 % 0.00 in /  0 mm 0 W/m2
23:10 45.0 °F /  7.2 °C 41.4 °F /  5.2 °C 29.38 in /  994.8 hPa SW 3.0 mph /  4.8 km/h 15.0 mph /  24.1 km/h 87 % 0.00 in /  0 mm 0 W/m2
23:15 44.8 °F /  7.1 °C 41.2 °F /  5.1 °C 29.38 in /  994.8 hPa SW 7.0 mph /  11.3 km/h 15.0 mph /  24.1 km/h 87 % 0.00 in /  0 mm 0 W/m2
23:20 44.5 °F /  6.9 °C 40.9 °F /  4.9 °C 29.38 in /  994.8 hPa West 9.0 mph /  14.5 km/h 9.0 mph /  14.5 km/h 87 % 0.00 in /  0 mm 0 W/m2
23:30 43.9 °F /  6.6 °C 40.6 °F /  4.8 °C 29.39 in /  995.1 hPa SW 9.0 mph /  14.5 km/h 9.0 mph /  14.5 km/h 88 % 0.00 in /  0 mm 0 W/m2
23:40 43.6 °F /  6.4 °C 40.3 °F /  4.6 °C 29.38 in /  994.8 hPa SW 7.0 mph /  11.3 km/h 7.0 mph /  11.3 km/h 88 % 0.00 in /  0 mm 0 W/m2
23:45 43.4 °F /  6.3 °C 39.8 °F /  4.3 °C 29.38 in /  994.8 hPa SW 8.0 mph /  12.9 km/h 9.0 mph /  14.5 km/h 87 % 0.00 in /  0 mm 0 W/m2
23:50 43.3 °F /  6.3 °C 39.7 °F /  4.3 °C 29.38 in /  994.8 hPa SW 7.0 mph /  11.3 km/h 7.0 mph /  11.3 km/h 87 % 0.00 in /  0 mm 0 W/m2
23:55 43.2 °F /  6.2 °C 39.6 °F /  4.2 °C 29.38 in /  994.8 hPa WSW 6.0 mph /  9.7 km/h 15.0 mph /  24.1 km/h 87 % 0.00 in /  0 mm 0 W/m2
Delerius-Weather
Compliments of Weather Underground - 2 mb

Data updates at regular intervals.